Time;durP1;ratioP1;P1;durP2;ratioP2;P2;SDS_P1;SDS_P2;PMS_P1;PMS_P2;Temp;Humidity;BMP_temperature;BMP_pressure;BME280_temperature;BME280_humidity;BME280_pressure;Samples;Min_cycle;Max_cycle;Signal;HPM_P1;HPM_P2
2022/12/15 00:38:43;;;;;;;198.53;71.83;;;-8.40;1.00;;;;;;10422854;28;20216;-81
2022/12/15 00:44:04;;;;;;;196.00;71.40;;;-8.50;99.90;;;;;;10387229;28;20197;-79
2022/12/15 01:23:27;;;;;;;218.97;84.43;;;-8.50;1.00;;;;;;10399792;28;20197;-79
2022/12/15 01:28:48;;;;;;;244.20;88.47;;;-8.40;1.00;;;;;;10385147;28;20251;-80
2022/12/15 01:34:09;;;;;;;221.03;88.27;;;-8.50;1.00;;;;;;10378219;28;20190;-80
2022/12/15 01:40:43;;;;;;;218.00;84.90;;;-8.40;99.90;;;;;;10361418;28;20204;-78
2022/12/15 01:45:40;;;;;;;223.17;81.23;;;-8.30;1.00;;;;;;10359207;28;20396;-78
2022/12/15 01:51:01;;;;;;;210.00;81.63;;;-8.50;99.90;;;;;;10344145;28;20489;-78
2022/12/15 01:56:24;;;;;;;220.67;81.90;;;-8.50;1.00;;;;;;10399682;28;20429;-78
2022/12/15 02:01:46;;;;;;;217.23;82.00;;;-8.50;99.90;;;;;;10398526;28;20367;-78
2022/12/15 02:07:13;;;;;;;216.57;87.47;;;-8.50;1.00;;;;;;10370221;28;20299;-78
2022/12/15 02:12:34;;;;;;;275.10;93.63;;;-8.50;99.90;;;;;;10398851;28;20196;-77
2022/12/15 02:18:19;;;;;;;268.13;95.67;;;-8.70;99.90;;;;;;10397322;28;20201;-77
2022/12/15 02:24:11;;;;;;;259.00;93.67;;;-8.70;1.00;;;;;;10378041;28;20520;-79
2022/12/15 02:29:50;;;;;;;249.90;94.23;;;-8.60;99.90;;;;;;10395801;28;20234;-77
2022/12/15 02:35:19;;;;;;;259.13;92.50;;;-8.40;99.90;;;;;;10383291;28;20216;-78
2022/12/15 02:40:40;;;;;;;268.57;102.77;;;-8.10;99.90;;;;;;10382547;28;20445;-79
2022/12/15 02:46:23;;;;;;;265.33;101.87;;;-8.00;99.90;;;;;;10396878;28;20456;-79
2022/12/15 02:52:10;;;;;;;251.97;92.30;;;-7.90;99.90;;;;;;10397578;28;20410;-80
2022/12/15 02:57:43;;;;;;;214.10;79.97;;;-7.80;99.90;;;;;;10352964;28;20252;-79
2022/12/15 03:03:04;;;;;;;188.17;72.97;;;-7.60;1.00;;;;;;10322905;28;20395;-81
2022/12/15 03:08:25;;;;;;;188.83;71.63;;;-7.50;66.60;;;;;;10308669;28;20232;-80
2022/12/15 03:13:46;;;;;;;152.73;62.40;;;-7.50;1.00;;;;;;10338798;28;20206;-81
2022/12/15 03:19:07;;;;;;;141.13;56.43;;;-7.50;99.90;;;;;;10352400;28;20216;-81
2022/12/15 03:24:29;;;;;;;145.90;56.13;;;-7.40;99.90;;;;;;10349688;28;20260;-81
2022/12/15 03:29:50;;;;;;;121.17;49.63;;;-7.20;99.90;;;;;;10351909;28;20237;-80
2022/12/15 03:35:11;;;;;;;123.83;52.30;;;-7.30;1.00;;;;;;10394187;28;20203;-81
2022/12/15 03:40:33;;;;;;;130.90;51.83;;;-7.20;99.90;;;;;;10394832;28;20189;-80
2022/12/15 03:45:54;;;;;;;108.20;47.20;;;-7.20;97.90;;;;;;10409051;28;20225;-81
2022/12/15 03:51:15;;;;;;;115.07;46.03;;;-7.10;99.90;;;;;;10394755;28;20197;-81
2022/12/15 03:56:37;;;;;;;89.93;40.93;;;-7.10;99.90;;;;;;10395539;28;20380;-81
2022/12/15 04:01:57;;;;;;;101.70;44.33;;;-7.00;38.30;;;;;;10395703;28;20442;-79
2022/12/15 04:07:18;;;;;;;97.40;43.80;;;-7.20;1.00;;;;;;10393801;28;20228;-78
2022/12/15 04:12:40;;;;;;;83.70;39.70;;;-7.30;99.90;;;;;;10354034;28;20208;-78
2022/12/15 04:18:03;;;;;;;95.80;40.80;;;-7.40;1.00;;;;;;10367777;28;20269;-81
2022/12/15 04:23:24;;;;;;;86.93;41.30;;;-7.50;99.90;;;;;;10364850;28;20193;-79
2022/12/15 05:36:46;;;;;;;88.63;40.57;;;-7.70;1.00;;;;;;10400424;28;20222;-78
2022/12/15 05:42:07;;;;;;;99.73;42.13;;;-7.60;99.90;;;;;;10385294;28;20199;-78
2022/12/15 05:47:28;;;;;;;84.80;38.20;;;-7.60;1.00;;;;;;10398666;28;20223;-79
2022/12/15 05:52:50;;;;;;;94.03;41.67;;;-7.60;99.90;;;;;;10398088;28;20206;-80
2022/12/15 05:58:11;;;;;;;101.40;44.07;;;-7.60;1.00;;;;;;10397783;28;20201;-79
2022/12/15 06:03:33;;;;;;;120.37;49.93;;;-7.60;49.70;;;;;;10383519;28;20197;-81
2022/12/15 06:08:54;;;;;;;120.00;49.53;;;-7.70;99.90;;;;;;10398406;28;20256;-79
2022/12/15 06:14:15;;;;;;;127.70;54.57;;;-7.70;99.90;;;;;;10383671;28;20289;-79
2022/12/15 06:19:36;;;;;;;109.17;46.20;;;-7.80;99.90;;;;;;10383246;28;20197;-79
2022/12/15 06:24:58;;;;;;;103.73;42.37;;;-8.00;99.90;;;;;;10368426;28;20207;-78
2022/12/15 06:30:19;;;;;;;123.30;51.60;;;-8.00;1.00;;;;;;10396969;28;20286;-80
2022/12/15 06:35:40;;;;;;;137.03;53.73;;;-8.20;1.00;;;;;;10397039;28;20425;-81
2022/12/15 06:41:03;;;;;;;103.50;44.20;;;-8.00;1.00;;;;;;10396819;28;20265;-80
2022/12/15 06:46:26;;;;;;;95.77;42.03;;;-7.80;1.00;;;;;;10382295;28;20239;-78
2022/12/15 06:51:48;;;;;;;92.87;41.90;;;-7.90;99.90;;;;;;10395941;28;20196;-81
2022/12/15 06:57:09;;;;;;;115.77;47.30;;;-8.00;99.90;;;;;;10395802;28;20255;-80
2022/12/15 07:02:31;;;;;;;131.43;55.43;;;-8.10;99.90;;;;;;10395393;28;20270;-80
2022/12/15 07:07:53;;;;;;;135.73;50.77;;;-8.20;1.00;;;;;;10395631;28;20236;-79
2022/12/15 07:13:15;;;;;;;142.97;53.80;;;-8.20;1.00;;;;;;10381513;28;20324;-80
2022/12/15 07:18:36;;;;;;;183.80;66.97;;;-8.10;99.90;;;;;;10395667;28;20193;-78
2022/12/15 07:23:57;;;;;;;159.43;67.70;;;-8.20;1.00;;;;;;10379568;28;20243;-80
2022/12/15 07:29:19;;;;;;;275.33;116.57;;;-8.10;34.30;;;;;;10380948;28;20449;-81
2022/12/15 07:34:42;;;;;;;207.83;92.93;;;-8.20;1.00;;;;;;10367796;28;20400;-80
2022/12/15 07:40:04;;;;;;;178.80;77.47;;;-8.30;1.00;;;;;;10395076;28;20556;-80
2022/12/15 07:45:26;;;;;;;169.23;78.07;;;-8.30;99.90;;;;;;10381020;28;20222;-79
2022/12/15 07:50:47;;;;;;;168.03;76.43;;;-8.20;1.00;;;;;;10394836;28;20404;-79
2022/12/15 07:56:08;;;;;;;157.37;70.67;;;-8.00;1.00;;;;;;10380277;28;20196;-79
2022/12/15 08:01:30;;;;;;;177.00;73.80;;;-8.00;1.30;;;;;;10394330;28;20199;-79
2022/12/15 08:06:53;;;;;;;199.40;82.93;;;-8.10;1.00;;;;;;10380136;28;20251;-79
2022/12/15 08:12:18;;;;;;;190.70;83.13;;;-8.10;1.00;;;;;;10395214;28;20495;-78
2022/12/15 08:17:39;;;;;;;182.27;76.33;;;-8.10;29.00;;;;;;10393647;28;20280;-79
2022/12/15 08:23:01;;;;;;;148.13;67.70;;;-8.10;1.00;;;;;;10393750;28;20390;-82
2022/12/15 08:28:22;;;;;;;150.00;66.43;;;-8.00;1.00;;;;;;10372423;28;20412;-81
2022/12/15 08:33:45;;;;;;;167.43;68.73;;;-7.80;1.00;;;;;;10377144;28;20195;-88
2022/12/15 08:39:06;;;;;;;114.07;50.07;;;-7.60;99.90;;;;;;10403135;28;20372;-81
2022/12/15 08:44:27;;;;;;;107.47;48.43;;;-7.30;99.90;;;;;;10381817;28;20413;-83
2022/12/15 08:49:49;;;;;;;129.40;58.30;;;-7.20;1.00;;;;;;10398076;28;20299;-81
2022/12/15 08:55:10;;;;;;;135.80;60.43;;;-7.30;99.90;;;;;;10395913;28;20201;-84
2022/12/15 09:00:31;;;;;;;130.10;57.07;;;-7.30;57.80;;;;;;10396438;28;20376;-88
2022/12/15 09:05:53;;;;;;;144.60;62.73;;;-7.40;1.00;;;;;;10368583;28;20232;-83
2022/12/15 09:11:14;;;;;;;150.63;68.90;;;-7.10;99.90;;;;;;10395616;28;20235;-80
2022/12/15 09:16:35;;;;;;;126.63;55.00;;;-7.10;99.90;;;;;;10395056;28;20280;-83
2022/12/15 09:21:56;;;;;;;112.23;50.97;;;-7.10;1.00;;;;;;10395131;28;20276;-82
2022/12/15 09:27:19;;;;;;;143.67;62.30;;;-6.90;99.90;;;;;;10380393;28;20216;-81
2022/12/15 09:32:40;;;;;;;119.77;54.47;;;-6.80;99.90;;;;;;10380878;28;20233;-82
2022/12/15 09:38:01;;;;;;;174.17;69.17;;;-6.80;18.30;;;;;;10380464;28;20193;-80
2022/12/15 09:43:26;;;;;;;154.93;66.57;;;-6.80;99.90;;;;;;10393594;28;21004;-80
2022/12/15 09:48:58;;;;;;;135.30;57.97;;;-6.80;1.00;;;;;;10394129;28;20609;-80
2022/12/15 09:54:22;;;;;;;124.77;51.77;;;-6.90;99.90;;;;;;10393555;28;20205;-78
2022/12/15 10:00:06;;;;;;;130.37;54.57;;;-6.70;1.00;;;;;;10379552;28;20247;-80
2022/12/15 10:05:33;;;;;;;167.97;65.10;;;-6.60;1.00;;;;;;10387657;28;20288;-82
2022/12/15 10:11:43;;;;;;;196.33;78.87;;;-6.50;1.00;;;;;;10365094;28;20209;-79
2022/12/15 10:17:16;;;;;;;174.00;69.70;;;-6.40;99.90;;;;;;10378321;28;20244;-79
2022/12/15 10:22:37;;;;;;;158.60;65.63;;;-6.10;1.00;;;;;;10367173;28;20281;-78
2022/12/15 10:28:25;;;;;;;143.37;59.00;;;-6.00;85.50;;;;;;10369381;28;20223;-81
2022/12/15 10:33:55;;;;;;;138.80;57.03;;;-5.90;99.90;;;;;;10364576;28;20373;-76
2022/12/15 10:39:16;;;;;;;114.73;53.47;;;-5.90;99.90;;;;;;10378098;28;20221;-76
2022/12/15 10:44:41;;;;;;;116.53;50.93;;;-5.70;99.90;;;;;;10391363;28;20380;-79
2022/12/15 10:50:23;;;;;;;123.97;52.37;;;-5.70;99.90;;;;;;10363000;28;20301;-78
2022/12/15 10:55:44;;;;;;;114.53;49.17;;;-5.50;99.90;;;;;;10376624;28;20369;-76
2022/12/15 11:01:14;;;;;;;108.70;50.70;;;-5.40;2.00;;;;;;10392435;28;20335;-85
2022/12/15 11:06:41;;;;;;;113.47;49.37;;;-5.40;99.90;;;;;;10375405;28;20252;-80
2022/12/15 11:18:25;;;;;;;97.87;45.83;;;-2.70;99.90;;;;;;10367565;28;20195;-81
2022/12/15 11:24:10;;;;;;;114.90;53.47;;;-1.60;1.00;;;;;;10372618;28;20223;-78
2022/12/15 11:29:45;;;;;;;106.87;52.33;;;-1.30;1.00;;;;;;10404959;28;20244;-76
2022/12/15 11:35:14;;;;;;;106.27;52.93;;;-1.30;1.00;;;;;;10390731;28;20197;-76
2022/12/15 11:40:42;;;;;;;108.20;52.53;;;-1.80;1.00;;;;;;10390250;28;20210;-76
2022/12/15 11:46:16;;;;;;;118.80;52.63;;;-2.50;1.00;;;;;;10389786;28;20235;-83
2022/12/15 11:51:49;;;;;;;110.83;53.07;;;-2.90;1.00;;;;;;10375770;28;20290;-83
2022/12/15 11:57:32;;;;;;;133.77;62.97;;;-2.90;95.10;;;;;;10388926;28;20202;-88
2022/12/15 12:03:18;;;;;;;144.67;61.93;;;-2.40;12.00;;;;;;10364342;28;20206;-82
2022/12/15 12:09:01;;;;;;;110.87;54.30;;;-2.10;1.00;;;;;;10398728;28;20271;-83
2022/12/15 12:15:00;;;;;;;110.60;54.63;;;-1.90;1.00;;;;;;10359875;28;20205;-82
2022/12/15 12:20:33;;;;;;;124.73;61.23;;;-2.40;1.00;;;;;;10357106;28;20258;-83
2022/12/15 12:26:15;;;;;;;122.37;59.87;;;-3.00;99.90;;;;;;10382190;28;20222;-76
2022/12/15 12:31:51;;;;;;;131.27;60.40;;;-3.20;1.00;;;;;;10383240;28;20233;-79
2022/12/15 12:37:42;;;;;;;140.53;61.60;;;-3.30;1.00;;;;;;10397135;28;20195;-77
2022/12/15 12:43:04;;;;;;;126.60;58.87;;;-3.60;99.90;;;;;;10395202;28;20205;-79
2022/12/15 12:48:33;;;;;;;138.80;60.57;;;-3.70;1.00;;;;;;10395997;28;20228;-78
2022/12/15 12:53:56;;;;;;;158.93;70.27;;;-3.80;3.60;;;;;;10396410;28;20209;-81
2022/12/15 12:59:35;;;;;;;150.07;67.07;;;-3.90;1.00;;;;;;10371651;28;20214;-82
2022/12/15 13:04:56;;;;;;;205.53;89.20;;;-3.90;1.00;;;;;;10380469;28;20383;-79
2022/12/15 13:10:20;;;;;;;136.17;61.03;;;-4.10;1.00;;;;;;10381481;28;20241;-87
2022/12/15 13:15:47;;;;;;;137.47;63.73;;;-4.30;99.90;;;;;;10395073;28;20189;-78
2022/12/15 13:21:40;;;;;;;135.80;62.73;;;-4.50;1.00;;;;;;10380490;28;20454;-79
2022/12/15 13:27:14;;;;;;;139.47;62.23;;;-4.50;1.00;;;;;;10365717;28;20235;-80
2022/12/15 13:32:41;;;;;;;154.73;69.50;;;-4.60;1.00;;;;;;10354845;28;20474;-82
2022/12/15 13:38:03;;;;;;;172.93;80.23;;;-4.80;1.00;;;;;;10379222;28;20198;-77
2022/12/15 13:43:27;;;;;;;167.23;77.17;;;-4.80;1.00;;;;;;10394973;28;20193;-80
2022/12/15 13:49:41;;;;;;;147.93;67.13;;;-4.90;99.90;;;;;;10393446;28;20264;-84
2022/12/15 13:55:18;;;;;;;152.53;68.20;;;-4.90;23.00;;;;;;10393488;28;20219;-81
2022/12/15 14:00:53;;;;;;;161.73;76.67;;;-5.10;1.00;;;;;;10367599;28;20401;-78
2022/12/15 14:06:15;;;;;;;171.20;78.90;;;-5.00;1.00;;;;;;10381189;28;20242;-82
2022/12/15 14:11:36;;;;;;;164.50;75.53;;;-5.10;99.90;;;;;;10379344;28;20201;-86
2022/12/15 14:17:16;;;;;;;163.97;73.57;;;-5.10;1.00;;;;;;10393348;28;20205;-82
2022/12/15 14:22:43;;;;;;;161.40;67.93;;;-5.10;1.00;;;;;;10366248;28;20234;-80
2022/12/15 14:28:25;;;;;;;153.70;66.10;;;-5.10;99.90;;;;;;10337507;28;20543;-81
2022/12/15 14:34:01;;;;;;;147.57;63.83;;;-5.00;1.00;;;;;;10363774;28;20695;-84
2022/12/15 14:39:43;;;;;;;154.03;63.97;;;-5.00;99.90;;;;;;10378312;28;20189;-80
2022/12/15 14:45:18;;;;;;;145.33;60.50;;;-5.00;84.80;;;;;;10391546;28;20325;-80
2022/12/15 14:50:46;;;;;;;145.63;63.07;;;-5.20;56.40;;;;;;10377784;28;20225;-79
2022/12/15 14:56:19;;;;;;;180.97;73.73;;;-5.30;20.00;;;;;;10392457;28;20436;-81
2022/12/15 15:01:58;;;;;;;161.17;65.10;;;-5.30;1.00;;;;;;10377221;28;20207;-78
2022/12/15 15:07:21;;;;;;;182.20;71.23;;;-5.30;77.10;;;;;;10382096;28;20352;-80
2022/12/15 15:12:47;;;;;;;164.73;63.30;;;-5.30;1.00;;;;;;10390451;28;20203;-78
2022/12/15 15:18:14;;;;;;;152.60;63.20;;;-5.30;99.90;;;;;;10390577;28;20252;-80
2022/12/15 15:23:38;;;;;;;165.90;70.93;;;-5.30;99.90;;;;;;10394059;28;20198;-83
2022/12/15 15:29:00;;;;;;;168.00;70.53;;;-5.30;1.00;;;;;;10376211;28;20264;-81
2022/12/15 15:34:21;;;;;;;166.77;66.10;;;-5.40;1.00;;;;;;10375947;28;20297;-82
2022/12/15 15:39:42;;;;;;;168.63;70.77;;;-5.40;1.00;;;;;;10375922;28;20263;-83
2022/12/15 15:45:04;;;;;;;140.47;61.13;;;-5.30;1.00;;;;;;10389781;28;20208;-82
2022/12/15 15:50:28;;;;;;;147.20;63.60;;;-5.30;1.00;;;;;;10390031;28;20546;-85
2022/12/15 15:55:52;;;;;;;134.40;60.17;;;-5.40;1.00;;;;;;10390954;28;20207;-81
2022/12/15 16:01:13;;;;;;;152.57;63.43;;;-5.50;1.00;;;;;;10389895;28;20268;-81
2022/12/15 16:06:35;;;;;;;133.53;59.00;;;-5.40;1.00;;;;;;10375792;28;20216;-87
2022/12/15 16:11:58;;;;;;;116.60;51.70;;;-5.50;1.00;;;;;;10375228;28;20247;-80
2022/12/15 16:17:19;;;;;;;120.97;53.53;;;-5.40;1.00;;;;;;10380775;28;20189;-79
2022/12/15 16:22:44;;;;;;;159.70;59.30;;;-5.60;1.00;;;;;;10394923;28;20208;-82
2022/12/15 16:28:17;;;;;;;131.37;53.07;;;-5.50;1.00;;;;;;10393854;28;20220;-81
2022/12/15 16:33:38;;;;;;;112.70;47.90;;;-5.40;1.00;;;;;;10394993;28;20189;-77
2022/12/15 16:38:59;;;;;;;102.23;44.97;;;-5.40;99.90;;;;;;10380254;28;20280;-79
2022/12/15 16:44:20;;;;;;;111.77;51.53;;;-5.40;1.00;;;;;;10393718;28;20240;-80
2022/12/15 16:49:41;;;;;;;110.93;48.60;;;-5.50;1.00;;;;;;10383376;28;20243;-78
2022/12/15 16:55:03;;;;;;;106.47;48.87;;;-5.50;1.00;;;;;;10401075;28;20196;-82
2022/12/15 17:00:27;;;;;;;111.20;47.43;;;-5.50;99.90;;;;;;10401296;28;20272;-80
2022/12/15 17:05:50;;;;;;;128.47;56.70;;;-5.40;1.00;;;;;;10379223;28;20247;-81
2022/12/15 17:11:18;;;;;;;146.67;62.57;;;-5.40;1.00;;;;;;10400750;28;20201;-80
2022/12/15 17:16:40;;;;;;;147.53;61.73;;;-5.50;1.00;;;;;;10400643;28;20196;-78
2022/12/15 17:22:01;;;;;;;119.83;52.37;;;-5.40;99.90;;;;;;10392914;28;20202;-79
2022/12/15 17:27:26;;;;;;;109.90;50.77;;;-5.40;99.90;;;;;;10359301;28;20222;-78
2022/12/15 17:32:48;;;;;;;121.73;50.60;;;-5.40;1.00;;;;;;10360014;28;20222;-79
2022/12/15 17:38:16;;;;;;;138.20;57.90;;;-5.50;1.00;;;;;;10358803;28;20201;-80
2022/12/15 17:43:38;;;;;;;129.47;55.10;;;-5.40;1.00;;;;;;10344631;28;20198;-79
2022/12/15 17:48:59;;;;;;;139.17;57.43;;;-5.40;99.90;;;;;;10358357;28;20240;-78
2022/12/15 17:54:21;;;;;;;132.63;55.70;;;-5.40;99.90;;;;;;10378505;28;20272;-80
2022/12/15 17:59:42;;;;;;;175.63;74.90;;;-5.40;1.00;;;;;;10384346;28;20578;-77
2022/12/15 18:05:03;;;;;;;157.30;65.67;;;-5.30;1.00;;;;;;10399270;28;20201;-78
2022/12/15 18:10:32;;;;;;;154.00;65.03;;;-5.40;99.90;;;;;;10398907;28;20295;-78
2022/12/15 18:15:54;;;;;;;155.47;62.90;;;-5.40;1.00;;;;;;10398062;28;20190;-80
2022/12/15 18:21:16;;;;;;;164.50;68.00;;;-5.40;1.00;;;;;;10398018;28;20568;-76
2022/12/15 18:26:37;;;;;;;150.37;61.60;;;-5.40;1.00;;;;;;10389389;28;20212;-78
2022/12/15 18:31:58;;;;;;;154.33;61.20;;;-5.40;1.00;;;;;;10397835;28;20237;-76
2022/12/15 18:37:21;;;;;;;118.10;51.93;;;-5.40;99.90;;;;;;10397676;28;20189;-79
2022/12/15 18:42:45;;;;;;;135.77;53.67;;;-5.20;1.00;;;;;;10398351;28;20197;-79
2022/12/15 18:48:15;;;;;;;132.73;55.40;;;-5.20;1.00;;;;;;10397774;28;20463;-78
2022/12/15 18:53:36;;;;;;;117.30;50.50;;;-5.20;1.00;;;;;;10397307;28;20197;-79
2022/12/15 18:58:57;;;;;;;142.17;55.10;;;-5.30;99.90;;;;;;10397149;28;20190;-80
2022/12/15 19:04:18;;;;;;;122.50;51.23;;;-5.20;99.90;;;;;;10395651;28;20487;-80
2022/12/15 19:09:40;;;;;;;134.77;54.93;;;-5.20;1.00;;;;;;10395954;28;20274;-80
2022/12/15 19:15:01;;;;;;;148.70;61.93;;;-5.20;19.10;;;;;;10395210;28;20199;-80
2022/12/15 19:26:02;;;;;;;121.80;53.73;;;-5.40;99.90;;;;;;10396074;28;20495;-75
2022/12/15 19:31:23;;;;;;;150.33;58.63;;;-5.50;1.00;;;;;;10381124;28;20487;-79
2022/12/15 19:36:45;;;;;;;119.43;52.77;;;-5.30;1.00;;;;;;10409350;28;20193;-80
2022/12/15 19:42:17;;;;;;;135.10;56.03;;;-5.20;99.90;;;;;;10395427;28;20197;-80
2022/12/15 19:47:39;;;;;;;138.20;60.73;;;-5.10;1.00;;;;;;10395361;28;20231;-77
2022/12/15 19:53:03;;;;;;;143.07;62.23;;;-5.10;99.90;;;;;;10395587;28;20345;-76
2022/12/15 19:58:27;;;;;;;124.83;54.63;;;-5.00;1.00;;;;;;10381609;28;20519;-81
2022/12/15 20:03:51;;;;;;;126.10;52.50;;;-5.00;1.00;;;;;;10380487;28;20251;-80
2022/12/15 20:09:16;;;;;;;122.23;51.70;;;-5.00;99.90;;;;;;10395597;28;20217;-81
2022/12/15 20:14:38;;;;;;;134.40;54.00;;;-5.00;1.00;;;;;;10408964;28;20190;-80
2022/12/15 20:19:59;;;;;;;119.30;51.63;;;-5.00;1.00;;;;;;10380239;28;20492;-78
2022/12/15 20:25:25;;;;;;;145.73;59.70;;;-5.00;1.00;;;;;;10399869;28;20197;-80
2022/12/15 20:30:47;;;;;;;138.83;59.17;;;-5.00;1.00;;;;;;10401988;28;20309;-79
2022/12/15 20:36:18;;;;;;;154.50;60.33;;;-4.90;1.00;;;;;;10401427;28;20413;-76
2022/12/15 20:41:39;;;;;;;162.63;59.97;;;-4.80;1.00;;;;;;10393380;28;20392;-82
2022/12/15 20:47:00;;;;;;;163.27;63.23;;;-4.80;1.00;;;;;;10402846;28;20209;-79
2022/12/15 20:52:24;;;;;;;164.73;62.00;;;-4.70;1.00;;;;;;10401473;28;20382;-81
2022/12/15 20:57:46;;;;;;;128.73;52.50;;;-4.70;1.00;;;;;;10401046;28;20228;-80
2022/12/15 21:03:34;;;;;;;132.90;54.87;;;-4.60;1.00;;;;;;10387101;28;20209;-79
2022/12/15 21:08:56;;;;;;;189.33;68.17;;;-4.70;1.00;;;;;;10398505;28;20230;-79
2022/12/15 21:14:21;;;;;;;172.67;63.47;;;-4.70;1.00;;;;;;10400980;28;20240;-78
2022/12/15 21:19:42;;;;;;;168.07;58.27;;;-4.70;1.00;;;;;;10400254;28;20372;-81
2022/12/15 21:25:13;;;;;;;144.93;53.77;;;-4.70;1.00;;;;;;10399971;28;20305;-83
2022/12/15 21:30:34;;;;;;;127.30;51.27;;;-4.80;1.00;;;;;;10399685;28;20264;-80
2022/12/15 21:35:55;;;;;;;115.10;50.60;;;-4.80;1.00;;;;;;10398805;28;20197;-82
2022/12/15 21:41:21;;;;;;;108.23;47.67;;;-4.90;1.00;;;;;;10399668;28;20185;-79
2022/12/15 21:46:42;;;;;;;111.13;45.53;;;-4.90;1.00;;;;;;10398915;28;20272;-82
2022/12/15 21:52:03;;;;;;;136.43;54.07;;;-4.80;1.00;;;;;;10399214;28;20265;-82
2022/12/15 21:57:24;;;;;;;111.37;47.77;;;-4.80;1.00;;;;;;10385461;28;20674;-80
2022/12/15 22:02:47;;;;;;;108.60;44.33;;;-4.80;1.00;;;;;;10398618;28;20243;-80
2022/12/15 22:08:16;;;;;;;124.67;48.70;;;-4.80;1.00;;;;;;10397913;28;20225;-79
2022/12/15 22:13:38;;;;;;;123.30;46.27;;;-4.70;1.00;;;;;;10384401;28;20227;-77
2022/12/15 22:19:00;;;;;;;96.27;42.10;;;-4.60;1.00;;;;;;10384169;28;20201;-80
2022/12/15 22:24:21;;;;;;;116.83;46.53;;;-4.60;1.00;;;;;;10397649;28;20202;-80
2022/12/15 22:29:42;;;;;;;112.60;46.43;;;-4.50;1.00;;;;;;10398325;28;20245;-80
2022/12/15 22:35:20;;;;;;;122.60;50.80;;;-4.50;1.00;;;;;;10400094;28;20189;-80
2022/12/15 22:40:43;;;;;;;110.60;45.87;;;-4.50;1.00;;;;;;10357601;28;20555;-80
2022/12/15 22:46:09;;;;;;;133.30;52.07;;;-4.50;1.00;;;;;;10375622;28;20225;-79
2022/12/15 22:51:30;;;;;;;120.63;49.67;;;-4.50;1.00;;;;;;10397913;28;20552;-77
2022/12/15 22:57:02;;;;;;;109.20;47.30;;;-4.40;1.00;;;;;;10396853;28;20191;-79
2022/12/15 23:02:24;;;;;;;114.20;46.40;;;-4.40;1.00;;;;;;10396444;28;20194;-76
2022/12/15 23:07:46;;;;;;;116.17;46.93;;;-4.40;1.00;;;;;;10395519;28;20327;-78
2022/12/15 23:13:07;;;;;;;108.87;45.37;;;-4.40;1.00;;;;;;10396063;28;20268;-77
2022/12/15 23:18:28;;;;;;;108.63;46.60;;;-4.30;1.00;;;;;;10395503;28;20199;-80
2022/12/15 23:23:50;;;;;;;100.73;44.47;;;-4.30;1.00;;;;;;10396052;28;20533;-80
2022/12/15 23:29:11;;;;;;;105.77;45.80;;;-4.30;1.00;;;;;;10381187;28;20245;-79
2022/12/15 23:34:32;;;;;;;105.63;48.43;;;-4.30;1.00;;;;;;10395777;28;20195;-79
2022/12/15 23:39:54;;;;;;;99.50;43.90;;;-4.30;1.00;;;;;;10390928;28;20412;-80
2022/12/15 23:45:15;;;;;;;111.93;46.73;;;-4.20;1.00;;;;;;10381480;28;20453;-80
2022/12/15 23:50:37;;;;;;;106.03;43.93;;;-4.30;1.00;;;;;;10395224;28;20216;-80
2022/12/15 23:56:06;;;;;;;97.63;41.33;;;-4.30;1.00;;;;;;10395021;28;20545;-81
